createdAt,value
2022-12-31T00:01:04.730Z,9
2022-12-31T00:06:04.630Z,9
2022-12-31T00:11:07.791Z,8.6
2022-12-31T00:16:12.138Z,8.6
2022-12-31T00:21:03.714Z,8.6
2022-12-31T00:26:03.919Z,8.4
2022-12-31T00:36:46.712Z,8.3
2022-12-31T00:41:03.722Z,8.1
2022-12-31T00:46:04.065Z,8.1
2022-12-31T00:51:03.495Z,7.9
2022-12-31T00:56:03.743Z,7.6
2022-12-31T01:01:03.657Z,7.5
2022-12-31T01:06:03.546Z,7.3
2022-12-31T01:11:03.867Z,7.3
2022-12-31T01:21:06.547Z,7.2
2022-12-31T01:26:03.736Z,7.2
2022-12-31T01:31:03.552Z,7.2
2022-12-31T01:36:04.794Z,7.1
2022-12-31T01:41:03.620Z,7
2022-12-31T01:46:03.575Z,7
2022-12-31T01:51:04.888Z,7
2022-12-31T01:56:05.117Z,7
2022-12-31T02:01:03.620Z,7
2022-12-31T02:06:03.526Z,7
2022-12-31T02:11:14.267Z,7
2022-12-31T02:16:03.636Z,7
2022-12-31T02:21:03.703Z,7
2022-12-31T02:26:03.550Z,7
2022-12-31T02:31:03.615Z,7
2022-12-31T02:36:03.534Z,7
2022-12-31T02:41:03.636Z,7
2022-12-31T02:46:03.601Z,7
2022-12-31T02:51:03.518Z,7
2022-12-31T02:56:03.726Z,7
2022-12-31T03:01:03.783Z,7
2022-12-31T03:06:03.820Z,7
2022-12-31T03:11:03.762Z,7
2022-12-31T03:16:06.088Z,7
2022-12-31T03:21:03.797Z,7.1
2022-12-31T03:26:03.636Z,7.1
2022-12-31T03:31:03.716Z,7.1
2022-12-31T03:36:04.056Z,7.1
2022-12-31T03:41:03.656Z,7.1
2022-12-31T03:46:03.633Z,7.1
2022-12-31T03:51:03.538Z,7.1
2022-12-31T03:56:03.539Z,7.1
2022-12-31T04:01:03.619Z,7.2
2022-12-31T04:06:03.557Z,7.2
2022-12-31T04:11:03.549Z,7.2
2022-12-31T04:16:03.574Z,7.2
2022-12-31T04:21:03.792Z,7.2
2022-12-31T04:26:03.570Z,7.2
2022-12-31T04:31:03.798Z,7.3
2022-12-31T04:36:03.625Z,7.4
2022-12-31T04:41:03.796Z,7.4
2022-12-31T04:46:03.630Z,7.4
2022-12-31T04:51:03.626Z,7.3
2022-12-31T04:56:03.727Z,7.3
2022-12-31T05:01:07.318Z,7.3
2022-12-31T05:06:03.745Z,7.3
2022-12-31T05:11:03.600Z,7.3
2022-12-31T05:16:04.840Z,7.3
2022-12-31T05:21:03.724Z,7.3
2022-12-31T05:26:03.628Z,7.3
2022-12-31T05:31:07.627Z,7.3
2022-12-31T05:36:04.253Z,7.3
2022-12-31T05:41:04.388Z,7.3
2022-12-31T05:46:03.637Z,7.3
2022-12-31T05:51:03.672Z,7.3
2022-12-31T05:56:04.990Z,7.3
2022-12-31T06:01:03.663Z,7.4
2022-12-31T06:06:03.628Z,7.4
2022-12-31T06:11:03.635Z,7.3
2022-12-31T06:16:03.646Z,7.3
2022-12-31T06:21:04.011Z,7.3
2022-12-31T06:26:03.647Z,7.3
2022-12-31T06:31:03.652Z,7.3
2022-12-31T06:36:03.737Z,7.3
2022-12-31T06:41:03.676Z,7.3
2022-12-31T06:46:03.726Z,7.3
2022-12-31T06:51:03.774Z,7.3
2022-12-31T06:56:04.314Z,7.3
2022-12-31T07:01:03.780Z,7.3
2022-12-31T07:06:04.168Z,7.4
2022-12-31T07:11:03.580Z,7.4
2022-12-31T07:16:03.846Z,7.3
2022-12-31T07:21:03.833Z,7.4
2022-12-31T07:26:03.750Z,7.3
2022-12-31T07:31:03.702Z,7.4
2022-12-31T07:36:03.638Z,7.3
2022-12-31T07:41:10.338Z,7.3
2022-12-31T07:46:03.679Z,7.3
2022-12-31T07:51:04.397Z,7.5
2022-12-31T07:56:03.695Z,7.5
2022-12-31T08:01:04.212Z,7.6
2022-12-31T08:06:03.718Z,7.6
2022-12-31T08:11:03.914Z,7.7
2022-12-31T08:16:05.686Z,8.2
2022-12-31T08:21:04.040Z,8.2
2022-12-31T08:26:03.716Z,13.4
2022-12-31T08:31:03.778Z,13.4
2022-12-31T08:36:03.801Z,13.4
2022-12-31T08:41:04.172Z,8.2
2022-12-31T08:46:03.752Z,7.6
2022-12-31T08:51:03.841Z,7.3
2022-12-31T08:56:03.706Z,7.3
2022-12-31T09:01:04.013Z,7.2
2022-12-31T09:06:03.778Z,7.1
2022-12-31T09:11:03.664Z,7
2022-12-31T09:16:04.197Z,7.1
2022-12-31T09:21:04.285Z,7.1
2022-12-31T09:26:03.779Z,7.1
2022-12-31T09:31:03.628Z,7.1
2022-12-31T09:36:03.680Z,7.2
2022-12-31T09:41:03.657Z,7.2
2022-12-31T09:46:03.723Z,7.2
2022-12-31T09:51:03.666Z,7.2
2022-12-31T09:56:03.661Z,7.2
2022-12-31T10:01:03.897Z,7.3
2022-12-31T10:06:03.668Z,7.2
2022-12-31T10:11:03.791Z,7.2
2022-12-31T10:16:03.732Z,7.1
2022-12-31T10:21:04.292Z,7.1
2022-12-31T10:26:04.177Z,7.1
2022-12-31T10:31:03.835Z,7.1
2022-12-31T10:36:03.699Z,7.1
2022-12-31T10:41:03.804Z,7.1
2022-12-31T10:46:03.744Z,7.1
2022-12-31T10:51:03.703Z,7.1
2022-12-31T10:56:04.097Z,7.1
2022-12-31T11:01:05.344Z,7.1
2022-12-31T11:06:03.786Z,7.1
2022-12-31T11:11:03.811Z,7.1
2022-12-31T11:16:03.723Z,7.1
2022-12-31T11:21:05.079Z,7.1
2022-12-31T11:26:03.750Z,7
2022-12-31T11:31:03.735Z,7
2022-12-31T11:36:03.801Z,7
2022-12-31T11:41:04.017Z,7
2022-12-31T11:46:04.018Z,7
2022-12-31T11:51:08.424Z,7
2022-12-31T11:56:03.697Z,7
2022-12-31T12:01:03.758Z,7.1
2022-12-31T12:06:03.781Z,7.1
2022-12-31T12:11:03.984Z,7.1
2022-12-31T12:16:03.792Z,7.1
2022-12-31T12:21:03.971Z,7.1
2022-12-31T12:26:03.767Z,7.1
2022-12-31T12:31:05.012Z,7.1
2022-12-31T12:36:06.678Z,7
2022-12-31T12:41:03.750Z,7.1
2022-12-31T12:46:03.770Z,7.1
2022-12-31T12:51:03.892Z,7.1
2022-12-31T12:56:04.280Z,7.1
2022-12-31T13:01:06.230Z,7.1
2022-12-31T13:06:03.707Z,7.1
2022-12-31T13:11:05.121Z,7.1
2022-12-31T13:16:03.830Z,7.1
2022-12-31T13:21:03.924Z,7.1
2022-12-31T13:26:03.731Z,7.1
2022-12-31T13:31:07.714Z,7.1
2022-12-31T13:36:04.036Z,7.1
2022-12-31T13:41:03.973Z,7.1
2022-12-31T13:46:04.884Z,7.2
2022-12-31T13:51:03.763Z,7.2
2022-12-31T13:56:04.772Z,7.2
2022-12-31T14:01:04.068Z,7.2
2022-12-31T14:06:03.956Z,7.2
2022-12-31T14:11:14.793Z,7.2
2022-12-31T14:16:03.881Z,7.2
2022-12-31T14:21:04.536Z,7.5
2022-12-31T14:26:03.883Z,7.6
2022-12-31T14:31:04.014Z,7.8
2022-12-31T14:36:10.700Z,8.1
2022-12-31T14:41:03.748Z,8.3
2022-12-31T14:46:05.951Z,8.3
2022-12-31T14:51:03.767Z,8.3
2022-12-31T14:56:04.459Z,8.7
2022-12-31T15:01:04.074Z,8.7
2022-12-31T15:06:03.768Z,8.7
2022-12-31T15:11:03.803Z,8.7
2022-12-31T15:16:04.778Z,8.7
2022-12-31T15:21:08.250Z,8.7
2022-12-31T15:26:03.789Z,9.9
2022-12-31T15:31:03.875Z,10.9
2022-12-31T15:36:03.737Z,11.9
2022-12-31T15:41:03.835Z,11.9
2022-12-31T15:46:03.829Z,11.9
2022-12-31T15:51:03.766Z,11.9
2022-12-31T15:56:03.866Z,10.6
2022-12-31T16:01:03.851Z,9.8
2022-12-31T16:06:04.415Z,9.6
2022-12-31T16:11:05.145Z,9.6
2022-12-31T16:16:03.875Z,9.6
2022-12-31T16:21:04.397Z,9.6
2022-12-31T16:26:04.487Z,9.7
2022-12-31T16:31:03.874Z,9.8
2022-12-31T16:36:04.052Z,9.8
2022-12-31T16:41:04.012Z,9.8
2022-12-31T16:46:05.742Z,10.2
2022-12-31T16:51:04.172Z,10.3
2022-12-31T16:56:03.814Z,10.3
2022-12-31T17:01:14.076Z,10.3
2022-12-31T17:06:03.876Z,10.2
2022-12-31T17:11:04.063Z,10.2
2022-12-31T17:16:05.472Z,10.3
2022-12-31T17:21:03.962Z,10.3
2022-12-31T17:26:03.865Z,10.3
2022-12-31T17:31:03.824Z,10.2
2022-12-31T17:36:03.956Z,10.1
2022-12-31T17:41:03.896Z,10.2
2022-12-31T17:46:03.918Z,10.4
2022-12-31T17:51:03.835Z,10
2022-12-31T17:56:03.973Z,10
2022-12-31T18:01:03.861Z,9.9
2022-12-31T18:06:03.821Z,10
2022-12-31T18:11:04.374Z,10.4
2022-12-31T18:16:03.832Z,10.4
2022-12-31T18:21:04.135Z,10.9
2022-12-31T18:26:03.872Z,11.8
2022-12-31T18:31:06.859Z,11.8
2022-12-31T18:36:10.810Z,11.8
2022-12-31T18:41:03.928Z,11.2
2022-12-31T18:46:03.905Z,11.9
2022-12-31T18:51:03.970Z,11.2
2022-12-31T18:56:03.847Z,11.2
2022-12-31T19:01:03.910Z,11.2
2022-12-31T19:06:03.990Z,12.5
2022-12-31T19:11:03.927Z,12.7
2022-12-31T19:16:03.901Z,13.2
2022-12-31T19:21:08.212Z,12.7
2022-12-31T19:26:03.851Z,12.7
2022-12-31T19:31:03.809Z,12.5
2022-12-31T19:36:03.820Z,10.6
2022-12-31T19:41:04.095Z,10.5
2022-12-31T19:46:03.871Z,10.4
2022-12-31T19:51:04.421Z,10.3
2022-12-31T19:56:03.907Z,10.3
2022-12-31T20:01:04.911Z,10.2
2022-12-31T20:06:03.829Z,9.2
2022-12-31T20:11:04.000Z,9.2
2022-12-31T20:16:03.932Z,9.2
2022-12-31T20:21:04.209Z,9.2
2022-12-31T20:26:04.013Z,9.2
2022-12-31T20:31:04.151Z,10.2
2022-12-31T20:36:03.918Z,10.2
2022-12-31T20:41:04.059Z,10.3
2022-12-31T20:46:04.326Z,10.3
2022-12-31T20:51:03.934Z,10.3
2022-12-31T20:56:03.902Z,10.2
2022-12-31T21:01:04.015Z,10.2
2022-12-31T21:06:04.936Z,9.6
2022-12-31T21:11:04.108Z,10.3
2022-12-31T21:16:03.907Z,10.3
2022-12-31T21:21:04.190Z,10.3
2022-12-31T21:26:03.933Z,11.3
2022-12-31T21:31:03.914Z,11.8
2022-12-31T21:36:07.007Z,11.8
2022-12-31T21:41:04.026Z,11.8
2022-12-31T21:46:03.915Z,12
2022-12-31T21:51:04.093Z,12
2022-12-31T21:56:03.967Z,11.8
2022-12-31T22:01:03.892Z,11
2022-12-31T22:06:04.484Z,10.6
2022-12-31T22:11:03.981Z,10.4
2022-12-31T22:16:06.875Z,9.6
2022-12-31T22:21:04.058Z,9.6
2022-12-31T22:26:03.951Z,9.6
2022-12-31T22:31:06.122Z,9.6
2022-12-31T22:36:03.998Z,9.9
2022-12-31T22:41:04.085Z,10
2022-12-31T22:46:03.905Z,10.1
2022-12-31T22:51:03.960Z,10.8
2022-12-31T22:56:04.163Z,10.8
2022-12-31T23:01:03.928Z,12.9
2022-12-31T23:06:04.074Z,13
2022-12-31T23:11:06.967Z,14.4
2022-12-31T23:16:04.108Z,14.4
2022-12-31T23:21:04.740Z,73.9
2022-12-31T23:26:06.035Z,100.2
2022-12-31T23:31:04.380Z,104.7
2022-12-31T23:36:04.683Z,104.7
2022-12-31T23:41:04.399Z,104.7
2022-12-31T23:46:05.138Z,100.2
2022-12-31T23:51:05.774Z,95.7
2022-12-31T23:56:14.949Z,78.6
